createdAt,value
2022-09-30T00:01:08.419Z,8.40
2022-09-30T00:03:37.199Z,8.50
2022-09-30T00:06:08.867Z,8.50
2022-09-30T00:08:41.380Z,8.50
2022-09-30T00:11:10.463Z,8.50
2022-09-30T00:13:40.210Z,8.50
2022-09-30T00:16:08.793Z,8.30
2022-09-30T00:18:37.184Z,8.20
2022-09-30T00:21:07.553Z,8.30
2022-09-30T00:23:36.445Z,8.30
2022-09-30T00:26:07.342Z,8.20
2022-09-30T00:28:35.714Z,8.20
2022-09-30T00:31:05.589Z,8.20
2022-09-30T00:33:34.111Z,8.30
2022-09-30T00:36:02.367Z,8.20
2022-09-30T00:38:30.522Z,8.30
2022-09-30T00:40:59.803Z,8.40
2022-09-30T00:43:42.675Z,8.40
2022-09-30T00:46:17.226Z,8.30
2022-09-30T00:48:51.034Z,8.40
2022-09-30T00:51:19.493Z,8.30
2022-09-30T00:53:50.466Z,8.30
2022-09-30T00:56:19.694Z,8.30
2022-09-30T00:58:51.961Z,8.40
2022-09-30T01:01:20.437Z,8.40
2022-09-30T01:03:50.270Z,8.50
2022-09-30T01:06:18.378Z,8.40
2022-09-30T01:08:46.807Z,8.50
2022-09-30T01:11:15.535Z,8.40
2022-09-30T01:13:44.636Z,8.40
2022-09-30T01:16:33.171Z,8.40
2022-09-30T01:19:16.806Z,8.50
2022-09-30T01:21:56.751Z,8.40
2022-09-30T01:24:39.657Z,8.50
2022-09-30T01:27:19.819Z,8.50
2022-09-30T01:29:57.323Z,8.60
2022-09-30T01:32:30.538Z,8.60
2022-09-30T01:35:04.782Z,8.50
2022-09-30T01:37:39.012Z,8.50
2022-09-30T01:40:08.679Z,8.60
2022-09-30T01:42:39.107Z,8.50
2022-09-30T01:45:10.063Z,8.50
2022-09-30T01:47:43.787Z,8.50
2022-09-30T01:50:15.360Z,8.50
2022-09-30T01:52:46.494Z,8.40
2022-09-30T01:55:18.698Z,8.50
2022-09-30T01:57:49.316Z,8.50
2022-09-30T02:00:17.470Z,8.50
2022-09-30T02:02:49.850Z,8.50
2022-09-30T02:05:20.469Z,8.50
2022-09-30T02:07:51.131Z,8.50
2022-09-30T02:10:21.462Z,8.60
2022-09-30T02:12:51.344Z,8.50
2022-09-30T02:15:22.638Z,8.50
2022-09-30T02:17:53.553Z,8.50
2022-09-30T02:20:23.619Z,8.50
2022-09-30T02:22:53.407Z,8.40
2022-09-30T02:25:25.609Z,8.40
2022-09-30T02:27:55.642Z,8.50
2022-09-30T02:30:24.276Z,8.50
2022-09-30T02:32:56.813Z,8.50
2022-09-30T02:35:28.471Z,8.50
2022-09-30T02:37:58.946Z,8.50
2022-09-30T02:40:29.248Z,8.50
2022-09-30T02:42:57.588Z,8.40
2022-09-30T02:45:26.212Z,8.40
2022-09-30T02:48:04.008Z,8.50
2022-09-30T02:50:33.553Z,8.50
2022-09-30T02:53:08.700Z,8.50
2022-09-30T02:55:39.235Z,8.50
2022-09-30T02:58:09.918Z,8.50
2022-09-30T03:00:38.269Z,8.50
2022-09-30T03:03:10.269Z,8.50
2022-09-30T03:05:38.458Z,8.50
2022-09-30T03:08:06.785Z,8.50
2022-09-30T03:10:34.973Z,8.40
2022-09-30T03:13:11.924Z,8.40
2022-09-30T03:15:47.435Z,8.40
2022-09-30T03:18:26.908Z,8.40
2022-09-30T03:21:03.745Z,8.40
2022-09-30T03:23:47.623Z,8.30
2022-09-30T03:26:19.694Z,8.30
2022-09-30T03:28:51.700Z,8.20
2022-09-30T03:31:24.399Z,8.30
2022-09-30T03:33:56.866Z,8.30
2022-09-30T03:36:28.406Z,8.30
2022-09-30T03:39:02.598Z,8.30
2022-09-30T03:41:33.143Z,8.30
2022-09-30T03:44:07.132Z,8.30
2022-09-30T03:46:37.085Z,8.40
2022-09-30T03:49:09.222Z,8.40
2022-09-30T03:51:38.651Z,8.40
2022-09-30T03:54:08.091Z,8.30
2022-09-30T03:56:36.201Z,8.30
2022-09-30T03:59:04.611Z,8.30
2022-09-30T04:01:32.663Z,8.20
2022-09-30T04:04:00.926Z,8.20
2022-09-30T04:06:31.451Z,8.20
2022-09-30T04:09:02.571Z,8.20
2022-09-30T04:11:30.891Z,8.20
2022-09-30T04:13:58.935Z,8.20
2022-09-30T04:16:27.053Z,8.20
2022-09-30T04:18:56.846Z,8.10
2022-09-30T04:21:26.128Z,8.20
2022-09-30T04:23:55.898Z,8.20
2022-09-30T04:26:24.085Z,8.10
2022-09-30T04:28:58.773Z,8.10
2022-09-30T04:31:27.338Z,8.10
2022-09-30T04:33:57.134Z,8.10
2022-09-30T04:36:25.226Z,8.00
2022-09-30T04:38:53.707Z,8.00
2022-09-30T04:41:23.554Z,7.90
2022-09-30T04:43:51.641Z,7.90
2022-09-30T04:46:21.255Z,7.90
2022-09-30T04:48:52.340Z,7.90
2022-09-30T04:51:21.156Z,7.80
2022-09-30T04:53:49.954Z,7.80
2022-09-30T04:56:18.473Z,7.70
2022-09-30T04:58:48.032Z,7.70
2022-09-30T05:01:16.815Z,7.70
2022-09-30T05:03:45.330Z,7.70
2022-09-30T05:06:14.265Z,7.70
2022-09-30T05:08:45.926Z,7.70
2022-09-30T05:11:16.618Z,7.70
2022-09-30T05:13:45.465Z,7.70
2022-09-30T05:16:15.392Z,7.70
2022-09-30T05:18:46.540Z,7.70
2022-09-30T05:21:15.258Z,7.70
2022-09-30T05:23:43.297Z,7.80
2022-09-30T05:26:12.790Z,7.70
2022-09-30T05:28:41.200Z,7.70
2022-09-30T05:31:09.487Z,7.70
2022-09-30T05:33:39.133Z,7.70
2022-09-30T05:36:08.135Z,7.70
2022-09-30T05:38:37.707Z,7.80
2022-09-30T05:41:11.682Z,7.80
2022-09-30T05:43:40.391Z,7.80
2022-09-30T05:46:08.979Z,7.60
2022-09-30T05:48:38.434Z,7.80
2022-09-30T05:51:07.686Z,7.70
2022-09-30T05:53:37.204Z,7.70
2022-09-30T05:56:05.434Z,7.70
2022-09-30T05:58:33.893Z,7.80
2022-09-30T06:01:12.070Z,7.70
2022-09-30T06:03:43.194Z,7.80
2022-09-30T06:06:11.520Z,7.80
2022-09-30T06:08:40.539Z,7.80
2022-09-30T06:11:13.039Z,7.80
2022-09-30T06:13:41.690Z,7.80
2022-09-30T06:16:10.174Z,7.90
2022-09-30T06:18:41.310Z,7.90
2022-09-30T06:21:12.234Z,7.80
2022-09-30T06:23:40.640Z,7.90
2022-09-30T06:26:12.367Z,7.90
2022-09-30T06:28:40.679Z,7.90
2022-09-30T06:31:08.741Z,8.00
2022-09-30T06:33:39.826Z,7.90
2022-09-30T06:36:08.098Z,7.90
2022-09-30T06:38:40.183Z,7.80
2022-09-30T06:41:08.539Z,8.00
2022-09-30T06:43:45.466Z,8.00
2022-09-30T06:46:30.606Z,7.90
2022-09-30T06:49:14.572Z,7.80
2022-09-30T06:51:42.764Z,7.90
2022-09-30T06:54:12.468Z,7.90
2022-09-30T06:56:40.980Z,7.90
2022-09-30T06:59:09.072Z,7.90
2022-09-30T07:01:37.316Z,8.00
2022-09-30T07:04:10.735Z,7.90
2022-09-30T07:06:39.657Z,7.90
2022-09-30T07:09:07.880Z,7.90
2022-09-30T07:11:39.150Z,7.90
2022-09-30T07:14:07.371Z,7.90
2022-09-30T07:16:35.516Z,7.80
2022-09-30T07:19:04.100Z,7.70
2022-09-30T07:21:32.810Z,7.70
2022-09-30T07:24:02.320Z,7.70
2022-09-30T07:37:24.924Z,8.00
2022-09-30T07:39:53.527Z,7.80
2022-09-30T07:42:23.140Z,7.80
2022-09-30T07:44:52.356Z,7.90
2022-09-30T07:47:20.559Z,8.00
2022-09-30T07:49:48.846Z,8.10
2022-09-30T07:52:16.827Z,7.90
2022-09-30T07:54:50.424Z,7.90
2022-09-30T07:57:19.086Z,7.90
2022-09-30T07:59:47.323Z,8.10
2022-09-30T08:02:16.703Z,8.10
2022-09-30T08:04:45.212Z,8.10
2022-09-30T08:07:17.618Z,8.00
2022-09-30T08:09:47.050Z,8.10
2022-09-30T08:12:15.187Z,8.20
2022-09-30T08:14:44.759Z,8.20
2022-09-30T08:17:16.090Z,8.30
2022-09-30T08:19:44.946Z,8.30
2022-09-30T08:22:14.186Z,8.30
2022-09-30T08:24:42.528Z,8.60
2022-09-30T08:27:12.119Z,8.70
2022-09-30T08:29:54.399Z,8.70
2022-09-30T08:32:23.478Z,8.70
2022-09-30T08:34:51.659Z,8.70
2022-09-30T08:37:19.689Z,8.80
2022-09-30T08:39:48.587Z,8.90
2022-09-30T08:42:37.217Z,9.00
2022-09-30T08:45:10.710Z,9.20
2022-09-30T08:47:44.990Z,9.30
2022-09-30T08:50:17.423Z,9.50
2022-09-30T09:12:33.897Z,9.70
2022-09-30T09:15:12.485Z,9.80
2022-09-30T09:28:37.133Z,9.80
2022-09-30T09:31:05.851Z,9.90
2022-09-30T09:33:35.647Z,10.00
2022-09-30T09:36:09.670Z,9.90
2022-09-30T09:38:43.050Z,9.80
2022-09-30T09:41:19.495Z,9.70
2022-09-30T09:43:52.846Z,9.60
2022-09-30T09:46:23.842Z,9.90
2022-09-30T09:48:57.340Z,10.00
2022-09-30T09:51:27.589Z,10.20
2022-09-30T09:53:58.216Z,10.00
2022-09-30T09:56:32.243Z,10.00
2022-09-30T09:59:13.496Z,9.90
2022-09-30T10:01:43.083Z,10.00
2022-09-30T10:04:15.893Z,10.20
2022-09-30T10:06:45.917Z,10.20
2022-09-30T10:09:24.562Z,10.20
2022-09-30T10:11:53.963Z,10.30
2022-09-30T10:14:25.788Z,10.50
2022-09-30T10:16:59.762Z,10.20
2022-09-30T10:19:28.968Z,10.30
2022-09-30T10:22:18.215Z,10.30
2022-09-30T10:24:46.198Z,10.60
2022-09-30T10:27:27.966Z,10.70
2022-09-30T10:29:59.947Z,10.90
2022-09-30T10:32:28.142Z,11.00
2022-09-30T10:35:01.251Z,11.10
2022-09-30T10:37:29.343Z,10.90
2022-09-30T10:39:58.984Z,11.00
2022-09-30T10:42:27.589Z,11.10
2022-09-30T10:44:58.553Z,10.90
2022-09-30T10:47:29.258Z,10.90
2022-09-30T10:50:01.544Z,10.60
2022-09-30T10:52:31.211Z,10.60
2022-09-30T10:54:59.908Z,10.30
2022-09-30T10:57:28.897Z,10.30
2022-09-30T11:00:00.729Z,10.40
2022-09-30T11:02:32.191Z,10.50
2022-09-30T11:05:03.708Z,10.70
2022-09-30T11:07:37.145Z,10.90
2022-09-30T11:10:08.226Z,11.00
2022-09-30T11:12:40.124Z,11.00
2022-09-30T11:15:14.887Z,10.80
2022-09-30T11:17:45.241Z,10.80
2022-09-30T11:20:18.558Z,10.90
2022-09-30T11:22:50.475Z,10.90
2022-09-30T11:25:25.287Z,11.00
2022-09-30T11:28:03.099Z,11.10
2022-09-30T11:30:35.610Z,11.20
2022-09-30T11:33:11.198Z,11.00
2022-09-30T11:35:47.951Z,11.10
2022-09-30T11:38:27.883Z,11.20
2022-09-30T11:40:59.882Z,11.10
2022-09-30T11:43:32.655Z,11.00
2022-09-30T11:46:16.843Z,10.90
2022-09-30T11:48:55.194Z,11.10
2022-09-30T11:51:28.130Z,11.30
2022-09-30T11:54:02.248Z,11.10
2022-09-30T11:56:37.970Z,11.00
2022-09-30T11:59:09.750Z,11.10
2022-09-30T12:01:42.224Z,11.10
2022-09-30T12:04:13.742Z,11.30
2022-09-30T12:06:43.635Z,11.40
2022-09-30T12:09:16.631Z,11.20
2022-09-30T12:11:51.822Z,11.40
2022-09-30T12:14:24.535Z,11.30
2022-09-30T12:16:56.914Z,11.40
2022-09-30T12:19:28.049Z,11.40
2022-09-30T12:21:59.352Z,11.30
2022-09-30T12:24:31.109Z,11.40
2022-09-30T12:27:02.355Z,11.30
2022-09-30T12:29:50.503Z,11.40
2022-09-30T12:32:38.118Z,11.50
2022-09-30T12:35:18.217Z,11.70
2022-09-30T12:37:53.891Z,11.80
2022-09-30T12:40:37.077Z,11.40
2022-09-30T12:43:31.914Z,11.50
2022-09-30T12:46:14.821Z,11.20
2022-09-30T12:48:46.570Z,11.20
2022-09-30T12:51:22.559Z,11.50
2022-09-30T12:53:52.626Z,11.70
2022-09-30T12:56:20.731Z,11.90
2022-09-30T12:58:52.321Z,12.00
2022-09-30T13:01:24.012Z,12.00
2022-09-30T13:04:10.515Z,12.10
2022-09-30T13:06:56.434Z,11.70
2022-09-30T13:09:30.908Z,11.60
2022-09-30T13:12:13.807Z,11.50
2022-09-30T13:14:43.575Z,11.30
2022-09-30T13:17:36.362Z,11.10
2022-09-30T13:20:27.490Z,11.10
2022-09-30T13:23:00.021Z,11.20
2022-09-30T13:25:28.202Z,11.20
2022-09-30T13:28:15.039Z,11.30
2022-09-30T13:30:45.930Z,11.10
2022-09-30T13:33:42.949Z,11.40
2022-09-30T13:36:27.955Z,11.30
2022-09-30T13:39:23.403Z,11.60
2022-09-30T13:42:09.755Z,11.60
2022-09-30T13:44:41.303Z,11.70
2022-09-30T13:47:14.962Z,11.50
2022-09-30T13:49:44.710Z,11.50
2022-09-30T13:52:19.439Z,11.10
2022-09-30T13:54:48.555Z,11.20
2022-09-30T13:57:20.152Z,11.50
2022-09-30T13:59:55.611Z,11.70
2022-09-30T14:02:42.953Z,11.80
2022-09-30T14:05:28.831Z,11.80
2022-09-30T14:08:08.726Z,11.70
2022-09-30T14:10:44.233Z,11.80
2022-09-30T14:13:25.767Z,12.00
2022-09-30T14:16:06.504Z,12.00
2022-09-30T14:18:40.847Z,11.70
2022-09-30T14:21:26.615Z,11.50
2022-09-30T14:23:58.871Z,11.70
2022-09-30T14:26:41.835Z,11.50
2022-09-30T14:29:19.659Z,11.60
2022-09-30T14:31:49.009Z,11.60
2022-09-30T14:34:18.334Z,11.50
2022-09-30T14:36:50.730Z,11.60
2022-09-30T14:39:21.319Z,11.60
2022-09-30T14:41:51.494Z,11.60
2022-09-30T14:44:22.842Z,11.60
2022-09-30T14:47:00.205Z,11.60
2022-09-30T14:49:34.279Z,11.70
2022-09-30T14:52:07.592Z,11.60
2022-09-30T14:54:35.872Z,11.60
2022-09-30T14:57:04.594Z,11.30
2022-09-30T14:59:34.828Z,11.20
2022-09-30T15:02:04.208Z,11.30
2022-09-30T15:04:34.241Z,11.30
2022-09-30T15:07:03.522Z,11.30
2022-09-30T15:09:33.498Z,11.30
2022-09-30T15:12:05.022Z,11.30
2022-09-30T15:14:34.625Z,11.30
2022-09-30T15:17:06.335Z,11.20
2022-09-30T15:19:35.433Z,11.20
2022-09-30T15:22:04.352Z,11.30
2022-09-30T15:24:33.477Z,11.20
2022-09-30T15:27:02.931Z,11.10
2022-09-30T15:29:31.412Z,10.90
2022-09-30T15:32:02.346Z,11.10
2022-09-30T15:34:31.182Z,11.00
2022-09-30T15:37:04.507Z,10.90
2022-09-30T15:39:47.550Z,10.80
2022-09-30T15:42:28.882Z,10.90
2022-09-30T15:44:59.469Z,10.90
2022-09-30T15:47:29.380Z,11.00
2022-09-30T15:49:57.682Z,10.60
2022-09-30T15:52:41.260Z,10.40
2022-09-30T15:55:29.523Z,10.30
2022-09-30T15:57:57.832Z,10.40
2022-09-30T16:00:36.698Z,10.60
2022-09-30T16:03:25.457Z,10.50
2022-09-30T16:05:54.238Z,10.50
2022-09-30T16:08:24.609Z,10.40
2022-09-30T16:10:54.221Z,10.30
2022-09-30T16:13:25.319Z,10.30
2022-09-30T16:15:54.422Z,10.20
2022-09-30T16:18:25.733Z,10.00
2022-09-30T16:20:58.270Z,9.90
2022-09-30T16:23:30.607Z,9.60
2022-09-30T16:26:14.573Z,9.50
2022-09-30T16:28:43.529Z,9.40
2022-09-30T16:31:12.310Z,9.30
2022-09-30T16:33:43.407Z,9.30
2022-09-30T16:36:11.674Z,9.20
2022-09-30T16:38:40.147Z,9.10
2022-09-30T16:41:14.018Z,9.00
2022-09-30T16:43:44.039Z,8.80
2022-09-30T16:46:13.029Z,8.70
2022-09-30T16:48:42.775Z,8.70
2022-09-30T16:51:14.003Z,8.70
2022-09-30T16:53:42.817Z,8.70
2022-09-30T16:56:15.250Z,8.70
2022-09-30T16:58:46.371Z,8.60
2022-09-30T17:01:18.219Z,8.60
2022-09-30T17:03:48.137Z,8.50
2022-09-30T17:06:17.230Z,8.40
2022-09-30T17:08:45.447Z,8.40
2022-09-30T17:11:13.738Z,8.30
2022-09-30T17:13:42.735Z,8.30
2022-09-30T17:16:10.909Z,8.30
2022-09-30T17:18:38.981Z,8.20
2022-09-30T17:21:08.595Z,8.10
2022-09-30T17:23:36.670Z,8.10
2022-09-30T17:26:07.981Z,8.00
2022-09-30T17:28:38.584Z,8.00
2022-09-30T17:31:06.868Z,7.90
2022-09-30T17:33:36.205Z,7.90
2022-09-30T17:36:07.553Z,7.90
2022-09-30T17:38:37.450Z,7.90
2022-09-30T17:41:23.895Z,7.90
2022-09-30T17:43:51.986Z,7.80
2022-09-30T17:46:23.533Z,7.70
2022-09-30T17:48:55.944Z,7.60
2022-09-30T17:51:24.031Z,7.60
2022-09-30T17:53:53.612Z,7.60
2022-09-30T17:56:25.149Z,7.50
2022-09-30T17:58:53.223Z,7.50
2022-09-30T18:01:22.292Z,7.40
2022-09-30T18:03:53.716Z,7.40
2022-09-30T18:06:22.828Z,7.30
2022-09-30T18:08:50.951Z,7.30
2022-09-30T18:11:22.649Z,7.40
2022-09-30T18:13:55.207Z,7.40
2022-09-30T18:16:24.672Z,7.30
2022-09-30T18:18:53.208Z,7.30
2022-09-30T18:21:21.620Z,7.30
2022-09-30T18:23:51.635Z,7.30
2022-09-30T18:26:22.679Z,7.40
2022-09-30T18:28:53.350Z,7.40
2022-09-30T18:31:28.601Z,7.40
2022-09-30T18:33:56.987Z,7.50
2022-09-30T18:36:26.734Z,7.50
2022-09-30T18:38:58.498Z,7.50
2022-09-30T18:41:27.058Z,7.50
2022-09-30T18:43:59.751Z,7.50
2022-09-30T18:46:29.370Z,7.40
2022-09-30T18:48:57.894Z,7.40
2022-09-30T18:51:26.345Z,7.40
2022-09-30T18:53:57.937Z,7.40
2022-09-30T18:56:27.335Z,7.30
2022-09-30T18:58:57.114Z,7.20
2022-09-30T19:01:27.266Z,7.20
2022-09-30T19:03:55.699Z,7.20
2022-09-30T19:06:23.914Z,7.10
2022-09-30T19:08:54.024Z,7.20
2022-09-30T19:11:23.773Z,7.10
2022-09-30T19:13:53.030Z,7.20
2022-09-30T19:16:25.196Z,7.20
2022-09-30T19:18:55.503Z,7.10
2022-09-30T19:21:23.791Z,7.10
2022-09-30T19:23:52.184Z,7.00
2022-09-30T19:26:20.762Z,7.00
2022-09-30T19:28:49.850Z,7.00
2022-09-30T19:31:20.909Z,7.10
2022-09-30T19:33:56.466Z,7.10
2022-09-30T19:36:27.044Z,7.10
2022-09-30T19:39:09.166Z,7.00
2022-09-30T19:41:40.020Z,7.00
2022-09-30T19:44:08.355Z,7.00
2022-09-30T19:46:36.762Z,7.00
2022-09-30T19:49:06.356Z,7.00
2022-09-30T19:51:35.889Z,7.10
2022-09-30T19:54:07.273Z,7.10
2022-09-30T19:56:36.251Z,7.30
2022-09-30T19:59:05.096Z,7.30
2022-09-30T20:01:34.851Z,7.50
2022-09-30T20:04:05.476Z,7.60
2022-09-30T20:06:38.803Z,7.70
2022-09-30T20:09:08.627Z,7.80
2022-09-30T20:11:37.922Z,7.80
2022-09-30T20:14:24.487Z,7.80
2022-09-30T20:16:53.155Z,7.90
2022-09-30T20:19:22.475Z,8.00
2022-09-30T20:21:54.084Z,8.00
2022-09-30T20:24:22.204Z,7.90
2022-09-30T20:26:52.607Z,8.00
2022-09-30T20:29:21.074Z,8.00
2022-09-30T20:31:49.357Z,8.00
2022-09-30T20:34:19.611Z,8.00
2022-09-30T20:36:47.755Z,8.00
2022-09-30T20:39:17.540Z,8.10
2022-09-30T20:41:46.511Z,8.10
2022-09-30T20:44:24.493Z,8.10
2022-09-30T20:46:52.922Z,8.10
2022-09-30T20:49:21.158Z,8.10
2022-09-30T20:51:50.062Z,8.10
2022-09-30T20:54:27.416Z,8.20
2022-09-30T20:57:07.308Z,8.10
2022-09-30T20:59:38.482Z,8.00
2022-09-30T21:02:10.491Z,8.00
2022-09-30T21:04:38.663Z,8.10
2022-09-30T21:07:07.000Z,8.10
2022-09-30T21:09:36.714Z,8.00
2022-09-30T21:12:05.009Z,8.00
2022-09-30T21:14:33.390Z,8.10
2022-09-30T21:17:01.410Z,8.00
2022-09-30T21:19:29.541Z,8.00
2022-09-30T21:21:58.054Z,8.10
2022-09-30T21:24:26.344Z,8.10
2022-09-30T21:26:55.973Z,8.10
2022-09-30T21:29:27.313Z,8.20
2022-09-30T21:31:55.400Z,8.30
2022-09-30T21:34:23.596Z,8.30
2022-09-30T21:36:51.592Z,8.30
2022-09-30T21:39:19.862Z,8.20
2022-09-30T21:41:47.922Z,8.10
2022-09-30T21:44:17.689Z,8.00
2022-09-30T21:46:48.829Z,8.00
2022-09-30T21:49:18.180Z,8.10
2022-09-30T21:51:46.494Z,8.10
2022-09-30T21:54:14.571Z,8.00
2022-09-30T21:56:44.894Z,8.10
2022-09-30T21:59:13.518Z,8.00
2022-09-30T22:01:43.042Z,7.90
2022-09-30T22:04:11.447Z,7.90
2022-09-30T22:06:39.749Z,7.90
2022-09-30T22:09:07.796Z,7.80
2022-09-30T22:11:36.171Z,7.80
2022-09-30T22:14:04.730Z,7.80
2022-09-30T22:16:36.042Z,7.70
2022-09-30T22:19:09.112Z,7.70
2022-09-30T22:21:39.452Z,7.70
2022-09-30T22:24:09.308Z,7.70
2022-09-30T22:26:38.122Z,7.60
2022-09-30T22:29:07.787Z,7.70
2022-09-30T22:31:36.153Z,7.80
2022-09-30T22:34:26.249Z,7.80
2022-09-30T22:37:11.620Z,7.80
2022-09-30T22:39:39.887Z,7.80
2022-09-30T22:42:08.599Z,7.90
2022-09-30T22:44:37.839Z,7.90
2022-09-30T22:47:06.300Z,8.00
2022-09-30T22:49:36.348Z,8.10
2022-09-30T22:52:04.744Z,8.20
2022-09-30T22:54:33.019Z,8.20
2022-09-30T22:57:01.276Z,8.20
2022-09-30T22:59:30.051Z,8.20
2022-09-30T23:01:58.191Z,8.20
2022-09-30T23:04:26.476Z,8.20
2022-09-30T23:06:56.623Z,8.10
2022-09-30T23:09:25.172Z,8.20
2022-09-30T23:11:54.262Z,8.20
2022-09-30T23:14:22.549Z,8.30
2022-09-30T23:16:50.878Z,8.30
2022-09-30T23:19:19.197Z,8.10
2022-09-30T23:21:47.308Z,8.20
2022-09-30T23:24:16.953Z,8.30
2022-09-30T23:26:45.040Z,8.30
2022-09-30T23:29:13.943Z,8.20
2022-09-30T23:31:44.892Z,8.30
2022-09-30T23:34:13.361Z,8.20
2022-09-30T23:36:41.396Z,8.10
2022-09-30T23:39:13.533Z,8.10
2022-09-30T23:41:46.458Z,8.10
2022-09-30T23:44:18.956Z,8.10
2022-09-30T23:47:01.266Z,8.30
2022-09-30T23:49:30.486Z,8.30
2022-09-30T23:51:58.579Z,8.40
2022-09-30T23:54:26.803Z,8.30
2022-09-30T23:56:56.291Z,8.30
2022-09-30T23:59:24.322Z,8.20
